sensor_id;sensor_type;location;lat;lon;timestamp;temperature;humidity
21312;DHT22;18076;52.154;10.570;2023-05-07T00:01:05;9.90;99.90
21312;DHT22;18076;52.154;10.570;2023-05-07T00:03:31;9.80;99.90
21312;DHT22;18076;52.154;10.570;2023-05-07T00:05:57;9.90;99.90
21312;DHT22;18076;52.154;10.570;2023-05-07T00:08:23;9.90;99.90
21312;DHT22;18076;52.154;10.570;2023-05-07T00:10:48;9.80;99.90
21312;DHT22;18076;52.154;10.570;2023-05-07T00:13:14;9.90;99.90
21312;DHT22;18076;52.154;10.570;2023-05-07T00:15:39;9.90;99.90
21312;DHT22;18076;52.154;10.570;2023-05-07T00:18:05;9.90;99.90
21312;DHT22;18076;52.154;10.570;2023-05-07T00:20:30;9.90;99.90
21312;DHT22;18076;52.154;10.570;2023-05-07T00:22:56;9.90;99.90
21312;DHT22;18076;52.154;10.570;2023-05-07T00:25:21;9.90;99.90
21312;DHT22;18076;52.154;10.570;2023-05-07T00:27:47;9.90;99.90
21312;DHT22;18076;52.154;10.570;2023-05-07T00:30:13;10.00;99.90
21312;DHT22;18076;52.154;10.570;2023-05-07T00:32:38;9.90;99.90
21312;DHT22;18076;52.154;10.570;2023-05-07T00:35:07;9.90;99.90
21312;DHT22;18076;52.154;10.570;2023-05-07T00:37:32;9.90;99.90
21312;DHT22;18076;52.154;10.570;2023-05-07T00:39:58;9.90;99.90
21312;DHT22;18076;52.154;10.570;2023-05-07T00:42:23;9.90;99.90
21312;DHT22;18076;52.154;10.570;2023-05-07T00:44:49;9.90;99.90
21312;DHT22;18076;52.154;10.570;2023-05-07T00:47:15;9.90;99.90
21312;DHT22;18076;52.154;10.570;2023-05-07T00:49:44;9.90;99.90
21312;DHT22;18076;52.154;10.570;2023-05-07T00:52:14;9.90;99.90
21312;DHT22;18076;52.154;10.570;2023-05-07T00:54:41;9.90;99.90
21312;DHT22;18076;52.154;10.570;2023-05-07T00:57:07;9.90;99.90
21312;DHT22;18076;52.154;10.570;2023-05-07T00:59:34;9.90;99.90
21312;DHT22;18076;52.154;10.570;2023-05-07T01:02:00;9.80;99.90
21312;DHT22;18076;52.154;10.570;2023-05-07T01:04:26;9.80;99.90
21312;DHT22;18076;52.154;10.570;2023-05-07T01:06:51;9.90;99.90
21312;DHT22;18076;52.154;10.570;2023-05-07T01:09:18;9.80;99.90
21312;DHT22;18076;52.154;10.570;2023-05-07T01:11:44;9.80;99.90
21312;DHT22;18076;52.154;10.570;2023-05-07T01:14:09;9.80;99.90
21312;DHT22;18076;52.154;10.570;2023-05-07T01:16:36;9.80;99.90
21312;DHT22;18076;52.154;10.570;2023-05-07T01:19:01;9.70;99.90
21312;DHT22;18076;52.154;10.570;2023-05-07T01:21:27;9.70;99.90
21312;DHT22;18076;52.154;10.570;2023-05-07T01:23:56;9.70;99.90
21312;DHT22;18076;52.154;10.570;2023-05-07T01:26:22;9.60;99.90
21312;DHT22;18076;52.154;10.570;2023-05-07T01:28:48;9.60;99.90
21312;DHT22;18076;52.154;10.570;2023-05-07T01:31:14;9.60;99.90
21312;DHT22;18076;52.154;10.570;2023-05-07T01:33:40;9.60;99.90
21312;DHT22;18076;52.154;10.570;2023-05-07T01:36:07;9.60;99.90
21312;DHT22;18076;52.154;10.570;2023-05-07T01:38:34;9.50;99.90
21312;DHT22;18076;52.154;10.570;2023-05-07T01:41:00;9.50;99.90
21312;DHT22;18076;52.154;10.570;2023-05-07T01:43:25;9.50;99.90
21312;DHT22;18076;52.154;10.570;2023-05-07T01:45:51;9.50;99.90
21312;DHT22;18076;52.154;10.570;2023-05-07T01:48:17;9.50;99.90
21312;DHT22;18076;52.154;10.570;2023-05-07T01:50:43;9.50;99.90
21312;DHT22;18076;52.154;10.570;2023-05-07T01:53:09;9.50;99.90
21312;DHT22;18076;52.154;10.570;2023-05-07T01:55:35;9.50;99.90
21312;DHT22;18076;52.154;10.570;2023-05-07T01:58:02;9.40;99.90
21312;DHT22;18076;52.154;10.570;2023-05-07T02:00:27;9.50;99.90
21312;DHT22;18076;52.154;10.570;2023-05-07T02:02:54;9.50;99.90
21312;DHT22;18076;52.154;10.570;2023-05-07T02:05:19;9.50;99.90
21312;DHT22;18076;52.154;10.570;2023-05-07T02:07:45;9.50;99.90
21312;DHT22;18076;52.154;10.570;2023-05-07T02:10:10;9.50;99.90
21312;DHT22;18076;52.154;10.570;2023-05-07T02:12:36;9.50;99.90
21312;DHT22;18076;52.154;10.570;2023-05-07T02:15:01;9.50;99.90
21312;DHT22;18076;52.154;10.570;2023-05-07T02:17:27;9.50;99.90
21312;DHT22;18076;52.154;10.570;2023-05-07T02:19:52;9.50;99.90
21312;DHT22;18076;52.154;10.570;2023-05-07T02:22:18;9.50;99.90
21312;DHT22;18076;52.154;10.570;2023-05-07T02:24:43;9.40;99.90
21312;DHT22;18076;52.154;10.570;2023-05-07T02:27:10;9.40;99.90
21312;DHT22;18076;52.154;10.570;2023-05-07T02:29:35;9.40;99.90
21312;DHT22;18076;52.154;10.570;2023-05-07T02:32:01;9.40;99.90
21312;DHT22;18076;52.154;10.570;2023-05-07T02:34:26;9.40;99.90
21312;DHT22;18076;52.154;10.570;2023-05-07T02:36:52;9.40;99.90
21312;DHT22;18076;52.154;10.570;2023-05-07T02:39:17;9.30;99.90
21312;DHT22;18076;52.154;10.570;2023-05-07T02:41:43;9.30;99.90
21312;DHT22;18076;52.154;10.570;2023-05-07T02:44:08;9.30;99.90
21312;DHT22;18076;52.154;10.570;2023-05-07T02:46:34;9.30;99.90
21312;DHT22;18076;52.154;10.570;2023-05-07T02:49:00;9.30;99.90
21312;DHT22;18076;52.154;10.570;2023-05-07T02:51:25;9.30;99.90
21312;DHT22;18076;52.154;10.570;2023-05-07T02:53:51;9.40;99.90
21312;DHT22;18076;52.154;10.570;2023-05-07T02:56:18;9.30;99.90
21312;DHT22;18076;52.154;10.570;2023-05-07T02:58:44;9.30;99.90
21312;DHT22;18076;52.154;10.570;2023-05-07T03:01:09;9.30;99.90
21312;DHT22;18076;52.154;10.570;2023-05-07T03:03:35;9.40;99.90
21312;DHT22;18076;52.154;10.570;2023-05-07T03:06:03;9.30;99.90
21312;DHT22;18076;52.154;10.570;2023-05-07T03:08:29;9.30;99.90
21312;DHT22;18076;52.154;10.570;2023-05-07T03:10:54;9.30;99.90
21312;DHT22;18076;52.154;10.570;2023-05-07T03:13:20;9.30;99.90
21312;DHT22;18076;52.154;10.570;2023-05-07T03:15:45;9.30;99.90
21312;DHT22;18076;52.154;10.570;2023-05-07T03:18:11;9.30;99.90
21312;DHT22;18076;52.154;10.570;2023-05-07T03:20:36;9.30;99.90
21312;DHT22;18076;52.154;10.570;2023-05-07T03:23:02;9.30;99.90
21312;DHT22;18076;52.154;10.570;2023-05-07T03:25:27;9.30;99.90
21312;DHT22;18076;52.154;10.570;2023-05-07T03:27:53;9.30;99.90
21312;DHT22;18076;52.154;10.570;2023-05-07T03:30:19;9.30;99.90
21312;DHT22;18076;52.154;10.570;2023-05-07T03:32:45;9.30;99.90
21312;DHT22;18076;52.154;10.570;2023-05-07T03:35:10;9.20;99.90
21312;DHT22;18076;52.154;10.570;2023-05-07T03:37:37;9.20;99.90
21312;DHT22;18076;52.154;10.570;2023-05-07T03:40:03;9.20;99.90
21312;DHT22;18076;52.154;10.570;2023-05-07T03:42:29;9.20;99.90
21312;DHT22;18076;52.154;10.570;2023-05-07T03:44:54;9.20;99.90
21312;DHT22;18076;52.154;10.570;2023-05-07T03:47:20;9.20;99.90
21312;DHT22;18076;52.154;10.570;2023-05-07T03:49:45;9.20;99.90
21312;DHT22;18076;52.154;10.570;2023-05-07T03:52:11;9.20;99.90
21312;DHT22;18076;52.154;10.570;2023-05-07T03:54:36;9.20;99.90
21312;DHT22;18076;52.154;10.570;2023-05-07T03:57:02;9.10;99.90
21312;DHT22;18076;52.154;10.570;2023-05-07T03:59:27;9.10;99.90
21312;DHT22;18076;52.154;10.570;2023-05-07T04:01:53;9.00;99.90
21312;DHT22;18076;52.154;10.570;2023-05-07T04:04:19;9.00;99.90
21312;DHT22;18076;52.154;10.570;2023-05-07T04:06:45;9.00;99.90
21312;DHT22;18076;52.154;10.570;2023-05-07T04:09:10;9.00;99.90
21312;DHT22;18076;52.154;10.570;2023-05-07T04:11:36;9.00;99.90
21312;DHT22;18076;52.154;10.570;2023-05-07T04:14:02;9.00;99.90
21312;DHT22;18076;52.154;10.570;2023-05-07T04:16:27;9.00;99.90
21312;DHT22;18076;52.154;10.570;2023-05-07T04:18:53;9.00;99.90
21312;DHT22;18076;52.154;10.570;2023-05-07T04:21:19;9.00;99.90
21312;DHT22;18076;52.154;10.570;2023-05-07T04:23:45;9.10;99.90
21312;DHT22;18076;52.154;10.570;2023-05-07T04:26:11;9.10;99.90
21312;DHT22;18076;52.154;10.570;2023-05-07T04:28:37;9.10;99.90
21312;DHT22;18076;52.154;10.570;2023-05-07T04:31:03;9.10;99.90
21312;DHT22;18076;52.154;10.570;2023-05-07T04:33:29;9.10;99.90
21312;DHT22;18076;52.154;10.570;2023-05-07T04:35:54;9.20;99.90
21312;DHT22;18076;52.154;10.570;2023-05-07T04:38:20;9.20;99.90
21312;DHT22;18076;52.154;10.570;2023-05-07T04:40:45;9.30;99.90
21312;DHT22;18076;52.154;10.570;2023-05-07T04:43:12;9.30;99.90
21312;DHT22;18076;52.154;10.570;2023-05-07T04:45:38;9.30;99.90
21312;DHT22;18076;52.154;10.570;2023-05-07T04:48:06;9.30;99.90
21312;DHT22;18076;52.154;10.570;2023-05-07T04:50:32;9.30;99.90
21312;DHT22;18076;52.154;10.570;2023-05-07T04:52:58;9.30;99.90
21312;DHT22;18076;52.154;10.570;2023-05-07T04:55:23;9.30;99.90
21312;DHT22;18076;52.154;10.570;2023-05-07T04:57:49;9.30;99.90
21312;DHT22;18076;52.154;10.570;2023-05-07T05:00:15;9.30;99.90
21312;DHT22;18076;52.154;10.570;2023-05-07T05:02:41;9.30;99.90
21312;DHT22;18076;52.154;10.570;2023-05-07T05:05:07;9.30;99.90
21312;DHT22;18076;52.154;10.570;2023-05-07T05:07:33;9.20;99.90
21312;DHT22;18076;52.154;10.570;2023-05-07T05:09:58;9.30;99.90
21312;DHT22;18076;52.154;10.570;2023-05-07T05:12:24;9.30;99.90
21312;DHT22;18076;52.154;10.570;2023-05-07T05:14:49;9.30;99.90
21312;DHT22;18076;52.154;10.570;2023-05-07T05:17:15;9.30;99.90
21312;DHT22;18076;52.154;10.570;2023-05-07T05:19:41;9.30;99.90
21312;DHT22;18076;52.154;10.570;2023-05-07T05:22:06;9.30;99.90
21312;DHT22;18076;52.154;10.570;2023-05-07T05:24:32;9.30;99.90
21312;DHT22;18076;52.154;10.570;2023-05-07T05:26:57;9.40;99.90
21312;DHT22;18076;52.154;10.570;2023-05-07T05:29:25;9.30;99.90
21312;DHT22;18076;52.154;10.570;2023-05-07T05:31:50;9.40;99.90
21312;DHT22;18076;52.154;10.570;2023-05-07T05:34:16;9.30;99.90
21312;DHT22;18076;52.154;10.570;2023-05-07T05:36:42;9.30;99.90
21312;DHT22;18076;52.154;10.570;2023-05-07T05:39:08;9.40;99.90
21312;DHT22;18076;52.154;10.570;2023-05-07T05:41:34;9.30;99.90
21312;DHT22;18076;52.154;10.570;2023-05-07T05:44:00;9.30;99.90
21312;DHT22;18076;52.154;10.570;2023-05-07T05:46:25;9.30;99.90
21312;DHT22;18076;52.154;10.570;2023-05-07T05:48:51;9.30;99.90
21312;DHT22;18076;52.154;10.570;2023-05-07T05:51:16;9.30;99.90
21312;DHT22;18076;52.154;10.570;2023-05-07T05:53:42;9.40;99.90
21312;DHT22;18076;52.154;10.570;2023-05-07T05:56:07;9.40;99.90
21312;DHT22;18076;52.154;10.570;2023-05-07T05:58:33;9.50;99.90
21312;DHT22;18076;52.154;10.570;2023-05-07T06:00:58;9.50;99.90
21312;DHT22;18076;52.154;10.570;2023-05-07T06:03:24;9.50;99.90
21312;DHT22;18076;52.154;10.570;2023-05-07T06:05:50;9.50;99.90
21312;DHT22;18076;52.154;10.570;2023-05-07T06:08:15;9.50;99.90
21312;DHT22;18076;52.154;10.570;2023-05-07T06:10:41;9.60;99.90
21312;DHT22;18076;52.154;10.570;2023-05-07T06:13:06;9.60;99.90
21312;DHT22;18076;52.154;10.570;2023-05-07T06:15:32;9.60;99.90
21312;DHT22;18076;52.154;10.570;2023-05-07T06:17:58;9.60;99.90
21312;DHT22;18076;52.154;10.570;2023-05-07T06:20:23;9.60;99.90
21312;DHT22;18076;52.154;10.570;2023-05-07T06:22:49;9.60;99.90
21312;DHT22;18076;52.154;10.570;2023-05-07T06:25:14;9.60;99.90
21312;DHT22;18076;52.154;10.570;2023-05-07T06:27:40;9.60;99.90
21312;DHT22;18076;52.154;10.570;2023-05-07T06:30:06;9.60;99.90
21312;DHT22;18076;52.154;10.570;2023-05-07T06:32:31;9.60;99.90
21312;DHT22;18076;52.154;10.570;2023-05-07T06:34:57;9.70;99.90
21312;DHT22;18076;52.154;10.570;2023-05-07T06:37:23;9.70;99.90
21312;DHT22;18076;52.154;10.570;2023-05-07T06:39:48;9.70;99.90
21312;DHT22;18076;52.154;10.570;2023-05-07T06:42:14;9.60;99.90
21312;DHT22;18076;52.154;10.570;2023-05-07T06:44:39;9.70;99.90
21312;DHT22;18076;52.154;10.570;2023-05-07T06:47:05;9.70;99.90
21312;DHT22;18076;52.154;10.570;2023-05-07T06:49:30;9.80;99.90
21312;DHT22;18076;52.154;10.570;2023-05-07T06:51:56;9.70;99.90
21312;DHT22;18076;52.154;10.570;2023-05-07T06:54:22;9.70;99.90
21312;DHT22;18076;52.154;10.570;2023-05-07T06:56:48;9.80;99.90
21312;DHT22;18076;52.154;10.570;2023-05-07T06:59:13;9.70;99.90
21312;DHT22;18076;52.154;10.570;2023-05-07T07:01:39;9.70;99.90
21312;DHT22;18076;52.154;10.570;2023-05-07T07:04:04;9.70;99.90
21312;DHT22;18076;52.154;10.570;2023-05-07T07:06:30;9.70;99.90
21312;DHT22;18076;52.154;10.570;2023-05-07T07:08:57;9.70;99.90
21312;DHT22;18076;52.154;10.570;2023-05-07T07:11:25;9.70;99.90
21312;DHT22;18076;52.154;10.570;2023-05-07T07:13:51;9.70;99.90
21312;DHT22;18076;52.154;10.570;2023-05-07T07:16:18;9.70;99.90
21312;DHT22;18076;52.154;10.570;2023-05-07T07:18:43;9.70;99.90
21312;DHT22;18076;52.154;10.570;2023-05-07T07:21:09;9.70;99.90
21312;DHT22;18076;52.154;10.570;2023-05-07T07:23:35;9.70;99.90
21312;DHT22;18076;52.154;10.570;2023-05-07T07:26:01;9.80;99.90
21312;DHT22;18076;52.154;10.570;2023-05-07T07:28:26;9.80;99.90
21312;DHT22;18076;52.154;10.570;2023-05-07T07:30:52;9.80;99.90
21312;DHT22;18076;52.154;10.570;2023-05-07T07:33:18;9.90;99.90
21312;DHT22;18076;52.154;10.570;2023-05-07T07:35:43;9.90;99.90
21312;DHT22;18076;52.154;10.570;2023-05-07T07:38:09;9.90;99.90
21312;DHT22;18076;52.154;10.570;2023-05-07T07:40:34;9.90;99.90
21312;DHT22;18076;52.154;10.570;2023-05-07T07:43:00;9.90;99.90
21312;DHT22;18076;52.154;10.570;2023-05-07T07:45:26;9.90;99.90
21312;DHT22;18076;52.154;10.570;2023-05-07T07:47:52;9.80;99.90
21312;DHT22;18076;52.154;10.570;2023-05-07T07:50:17;9.80;99.90
21312;DHT22;18076;52.154;10.570;2023-05-07T07:52:43;9.90;99.90
21312;DHT22;18076;52.154;10.570;2023-05-07T07:55:09;9.90;99.90
21312;DHT22;18076;52.154;10.570;2023-05-07T07:57:34;10.00;99.90
21312;DHT22;18076;52.154;10.570;2023-05-07T08:00:00;10.10;99.90
21312;DHT22;18076;52.154;10.570;2023-05-07T08:02:26;10.10;99.90
21312;DHT22;18076;52.154;10.570;2023-05-07T08:04:51;10.10;99.90
21312;DHT22;18076;52.154;10.570;2023-05-07T08:07:17;10.10;99.90
21312;DHT22;18076;52.154;10.570;2023-05-07T08:09:45;10.10;99.90
21312;DHT22;18076;52.154;10.570;2023-05-07T08:12:11;10.10;99.90
21312;DHT22;18076;52.154;10.570;2023-05-07T08:14:37;10.00;99.90
21312;DHT22;18076;52.154;10.570;2023-05-07T08:17:02;10.10;99.90
21312;DHT22;18076;52.154;10.570;2023-05-07T08:19:28;10.10;99.90
21312;DHT22;18076;52.154;10.570;2023-05-07T08:21:53;10.10;99.90
21312;DHT22;18076;52.154;10.570;2023-05-07T08:24:19;10.20;99.90
21312;DHT22;18076;52.154;10.570;2023-05-07T08:26:44;10.20;99.90
21312;DHT22;18076;52.154;10.570;2023-05-07T08:29:10;10.30;99.90
21312;DHT22;18076;52.154;10.570;2023-05-07T08:31:36;10.30;99.90
21312;DHT22;18076;52.154;10.570;2023-05-07T08:34:02;10.40;99.90
21312;DHT22;18076;52.154;10.570;2023-05-07T08:36:28;10.30;99.90
21312;DHT22;18076;52.154;10.570;2023-05-07T08:38:53;10.30;99.90
21312;DHT22;18076;52.154;10.570;2023-05-07T08:41:20;10.30;99.90
21312;DHT22;18076;52.154;10.570;2023-05-07T08:43:47;10.50;99.90
21312;DHT22;18076;52.154;10.570;2023-05-07T08:46:13;10.50;99.90
21312;DHT22;18076;52.154;10.570;2023-05-07T08:48:42;10.50;99.90
21312;DHT22;18076;52.154;10.570;2023-05-07T08:51:08;10.50;99.90
21312;DHT22;18076;52.154;10.570;2023-05-07T08:53:34;10.60;99.90
21312;DHT22;18076;52.154;10.570;2023-05-07T08:56:00;10.60;99.90
21312;DHT22;18076;52.154;10.570;2023-05-07T08:58:26;10.60;99.90
21312;DHT22;18076;52.154;10.570;2023-05-07T09:00:51;10.60;99.90
21312;DHT22;18076;52.154;10.570;2023-05-07T09:03:18;10.60;99.90
21312;DHT22;18076;52.154;10.570;2023-05-07T09:05:43;10.60;99.90
21312;DHT22;18076;52.154;10.570;2023-05-07T09:08:09;10.60;99.90
21312;DHT22;18076;52.154;10.570;2023-05-07T09:10:35;10.60;99.90
21312;DHT22;18076;52.154;10.570;2023-05-07T09:13:02;10.60;99.90
21312;DHT22;18076;52.154;10.570;2023-05-07T09:15:27;10.70;99.90
21312;DHT22;18076;52.154;10.570;2023-05-07T09:17:53;10.70;99.90
21312;DHT22;18076;52.154;10.570;2023-05-07T09:20:19;10.90;99.90
21312;DHT22;18076;52.154;10.570;2023-05-07T09:22:44;10.90;99.90
21312;DHT22;18076;52.154;10.570;2023-05-07T09:25:10;10.80;99.90
21312;DHT22;18076;52.154;10.570;2023-05-07T09:27:36;10.90;99.90
21312;DHT22;18076;52.154;10.570;2023-05-07T09:30:05;11.00;99.90
21312;DHT22;18076;52.154;10.570;2023-05-07T09:32:33;10.90;99.90
21312;DHT22;18076;52.154;10.570;2023-05-07T09:34:59;10.90;99.90
21312;DHT22;18076;52.154;10.570;2023-05-07T09:37:25;10.80;99.90
21312;DHT22;18076;52.154;10.570;2023-05-07T09:39:51;10.80;99.90
21312;DHT22;18076;52.154;10.570;2023-05-07T09:42:22;10.80;99.90
21312;DHT22;18076;52.154;10.570;2023-05-07T09:44:47;10.80;99.90
21312;DHT22;18076;52.154;10.570;2023-05-07T09:47:14;10.80;99.90
21312;DHT22;18076;52.154;10.570;2023-05-07T09:49:42;10.80;99.90
21312;DHT22;18076;52.154;10.570;2023-05-07T09:52:10;10.90;99.90
21312;DHT22;18076;52.154;10.570;2023-05-07T09:54:38;10.90;99.90
21312;DHT22;18076;52.154;10.570;2023-05-07T09:57:05;10.90;99.90
21312;DHT22;18076;52.154;10.570;2023-05-07T09:59:32;10.90;99.90
21312;DHT22;18076;52.154;10.570;2023-05-07T10:01:58;10.90;99.90
21312;DHT22;18076;52.154;10.570;2023-05-07T10:04:26;10.90;99.90
21312;DHT22;18076;52.154;10.570;2023-05-07T10:06:52;10.80;99.90
21312;DHT22;18076;52.154;10.570;2023-05-07T10:09:19;10.80;99.90
21312;DHT22;18076;52.154;10.570;2023-05-07T10:11:44;10.80;99.90
21312;DHT22;18076;52.154;10.570;2023-05-07T10:14:10;10.90;99.90
21312;DHT22;18076;52.154;10.570;2023-05-07T10:16:36;10.90;99.90
21312;DHT22;18076;52.154;10.570;2023-05-07T10:19:05;11.00;99.90
21312;DHT22;18076;52.154;10.570;2023-05-07T10:21:30;11.10;99.90
21312;DHT22;18076;52.154;10.570;2023-05-07T10:24:04;11.00;99.90
21312;DHT22;18076;52.154;10.570;2023-05-07T10:26:35;11.00;99.90
21312;DHT22;18076;52.154;10.570;2023-05-07T10:29:05;11.10;99.90
21312;DHT22;18076;52.154;10.570;2023-05-07T10:31:36;11.20;99.90
21312;DHT22;18076;52.154;10.570;2023-05-07T10:34:11;11.10;99.90
21312;DHT22;18076;52.154;10.570;2023-05-07T10:36:38;11.20;99.90
21312;DHT22;18076;52.154;10.570;2023-05-07T10:39:05;11.10;99.90
21312;DHT22;18076;52.154;10.570;2023-05-07T10:41:31;11.30;99.90
21312;DHT22;18076;52.154;10.570;2023-05-07T10:43:57;11.20;99.90
21312;DHT22;18076;52.154;10.570;2023-05-07T10:46:22;11.20;99.90
21312;DHT22;18076;52.154;10.570;2023-05-07T10:51:27;11.40;99.90
21312;DHT22;18076;52.154;10.570;2023-05-07T10:56:37;11.60;99.90
21312;DHT22;18076;52.154;10.570;2023-05-07T11:04:18;11.70;99.90
21312;DHT22;18076;52.154;10.570;2023-05-07T11:07:09;11.70;99.90
21312;DHT22;18076;52.154;10.570;2023-05-07T11:12:12;11.80;99.90
21312;DHT22;18076;52.154;10.570;2023-05-07T11:17:11;11.70;99.90
21312;DHT22;18076;52.154;10.570;2023-05-07T11:19:52;11.70;99.90
21312;DHT22;18076;52.154;10.570;2023-05-07T11:24:56;11.50;99.90
21312;DHT22;18076;52.154;10.570;2023-05-07T11:27:25;11.50;99.90
21312;DHT22;18076;52.154;10.570;2023-05-07T11:29:51;11.50;99.90
21312;DHT22;18076;52.154;10.570;2023-05-07T11:32:22;11.50;99.90
21312;DHT22;18076;52.154;10.570;2023-05-07T11:34:50;11.70;99.90
21312;DHT22;18076;52.154;10.570;2023-05-07T11:37:17;11.70;99.90
21312;DHT22;18076;52.154;10.570;2023-05-07T11:39:42;11.60;99.90
21312;DHT22;18076;52.154;10.570;2023-05-07T11:44:52;11.70;99.90
21312;DHT22;18076;52.154;10.570;2023-05-07T11:47:20;11.70;99.90
21312;DHT22;18076;52.154;10.570;2023-05-07T11:49:47;11.60;99.90
21312;DHT22;18076;52.154;10.570;2023-05-07T11:52:13;11.60;99.90
21312;DHT22;18076;52.154;10.570;2023-05-07T11:54:38;11.60;99.90
21312;DHT22;18076;52.154;10.570;2023-05-07T11:57:04;11.80;99.90
21312;DHT22;18076;52.154;10.570;2023-05-07T11:59:29;11.90;99.90
21312;DHT22;18076;52.154;10.570;2023-05-07T12:01:58;11.90;99.90
21312;DHT22;18076;52.154;10.570;2023-05-07T12:04:24;11.80;99.90
21312;DHT22;18076;52.154;10.570;2023-05-07T12:06:53;11.70;99.90
21312;DHT22;18076;52.154;10.570;2023-05-07T12:09:19;11.70;99.90
21312;DHT22;18076;52.154;10.570;2023-05-07T12:11:45;11.80;99.90
21312;DHT22;18076;52.154;10.570;2023-05-07T12:14:11;11.70;99.90
21312;DHT22;18076;52.154;10.570;2023-05-07T12:16:39;11.60;99.90
21312;DHT22;18076;52.154;10.570;2023-05-07T12:19:05;11.60;99.90
21312;DHT22;18076;52.154;10.570;2023-05-07T12:21:32;11.60;99.90
21312;DHT22;18076;52.154;10.570;2023-05-07T12:23:58;11.50;99.90
21312;DHT22;18076;52.154;10.570;2023-05-07T12:26:24;11.60;99.90
21312;DHT22;18076;52.154;10.570;2023-05-07T12:28:50;11.60;99.90
21312;DHT22;18076;52.154;10.570;2023-05-07T12:31:15;11.60;99.90
21312;DHT22;18076;52.154;10.570;2023-05-07T12:33:41;11.60;99.90
21312;DHT22;18076;52.154;10.570;2023-05-07T12:36:07;11.70;99.90
21312;DHT22;18076;52.154;10.570;2023-05-07T12:38:37;11.60;99.90
21312;DHT22;18076;52.154;10.570;2023-05-07T12:41:03;11.70;99.90
21312;DHT22;18076;52.154;10.570;2023-05-07T12:43:29;11.70;99.90
21312;DHT22;18076;52.154;10.570;2023-05-07T12:45:55;11.70;99.90
21312;DHT22;18076;52.154;10.570;2023-05-07T12:48:21;11.70;99.90
21312;DHT22;18076;52.154;10.570;2023-05-07T12:50:50;11.90;99.90
21312;DHT22;18076;52.154;10.570;2023-05-07T12:53:16;12.00;99.90
21312;DHT22;18076;52.154;10.570;2023-05-07T12:58:07;12.10;99.90
21312;DHT22;18076;52.154;10.570;2023-05-07T13:00:34;12.10;99.90
21312;DHT22;18076;52.154;10.570;2023-05-07T13:02:59;12.20;99.90
21312;DHT22;18076;52.154;10.570;2023-05-07T13:05:25;12.30;99.90
21312;DHT22;18076;52.154;10.570;2023-05-07T13:07:54;12.30;99.90
21312;DHT22;18076;52.154;10.570;2023-05-07T13:10:20;12.20;99.90
21312;DHT22;18076;52.154;10.570;2023-05-07T13:12:45;12.20;99.90
21312;DHT22;18076;52.154;10.570;2023-05-07T13:15:11;12.30;99.90
21312;DHT22;18076;52.154;10.570;2023-05-07T13:17:36;12.30;99.90
21312;DHT22;18076;52.154;10.570;2023-05-07T13:20:02;12.20;99.90
21312;DHT22;18076;52.154;10.570;2023-05-07T13:22:27;12.20;99.90
21312;DHT22;18076;52.154;10.570;2023-05-07T13:24:53;12.20;99.90
21312;DHT22;18076;52.154;10.570;2023-05-07T13:27:18;12.20;99.90
21312;DHT22;18076;52.154;10.570;2023-05-07T13:29:44;12.20;99.90
21312;DHT22;18076;52.154;10.570;2023-05-07T13:32:10;12.30;99.90
21312;DHT22;18076;52.154;10.570;2023-05-07T13:34:35;12.30;99.90
21312;DHT22;18076;52.154;10.570;2023-05-07T13:37:02;12.30;99.90
21312;DHT22;18076;52.154;10.570;2023-05-07T13:39:27;12.30;99.90
21312;DHT22;18076;52.154;10.570;2023-05-07T13:41:53;12.40;99.90
21312;DHT22;18076;52.154;10.570;2023-05-07T13:44:18;12.60;99.90
21312;DHT22;18076;52.154;10.570;2023-05-07T13:46:44;12.50;99.90
21312;DHT22;18076;52.154;10.570;2023-05-07T13:49:10;12.40;99.90
21312;DHT22;18076;52.154;10.570;2023-05-07T13:51:36;12.30;99.90
21312;DHT22;18076;52.154;10.570;2023-05-07T13:54:01;12.30;99.90
21312;DHT22;18076;52.154;10.570;2023-05-07T13:56:28;12.20;99.90
21312;DHT22;18076;52.154;10.570;2023-05-07T13:58:56;12.20;99.90
21312;DHT22;18076;52.154;10.570;2023-05-07T14:01:21;12.20;99.90
21312;DHT22;18076;52.154;10.570;2023-05-07T14:03:47;12.40;99.90
21312;DHT22;18076;52.154;10.570;2023-05-07T14:06:12;12.50;99.90
21312;DHT22;18076;52.154;10.570;2023-05-07T14:08:38;12.60;99.90
21312;DHT22;18076;52.154;10.570;2023-05-07T14:11:03;12.60;99.90
21312;DHT22;18076;52.154;10.570;2023-05-07T14:13:29;12.80;99.90
21312;DHT22;18076;52.154;10.570;2023-05-07T14:15:56;12.80;99.90
21312;DHT22;18076;52.154;10.570;2023-05-07T14:18:21;12.80;99.90
21312;DHT22;18076;52.154;10.570;2023-05-07T14:20:47;12.80;99.90
21312;DHT22;18076;52.154;10.570;2023-05-07T14:23:14;12.80;99.90
21312;DHT22;18076;52.154;10.570;2023-05-07T14:25:40;12.70;99.90
21312;DHT22;18076;52.154;10.570;2023-05-07T14:28:06;12.70;99.90
21312;DHT22;18076;52.154;10.570;2023-05-07T14:30:31;12.70;99.90
21312;DHT22;18076;52.154;10.570;2023-05-07T14:32:57;12.70;99.90
21312;DHT22;18076;52.154;10.570;2023-05-07T14:35:23;12.70;99.90
21312;DHT22;18076;52.154;10.570;2023-05-07T14:37:48;12.70;99.90
21312;DHT22;18076;52.154;10.570;2023-05-07T14:40:14;12.60;99.90
21312;DHT22;18076;52.154;10.570;2023-05-07T14:42:40;12.50;99.90
21312;DHT22;18076;52.154;10.570;2023-05-07T14:45:05;12.60;99.90
21312;DHT22;18076;52.154;10.570;2023-05-07T14:47:31;12.50;99.90
21312;DHT22;18076;52.154;10.570;2023-05-07T14:49:56;12.50;99.90
21312;DHT22;18076;52.154;10.570;2023-05-07T14:52:23;12.60;99.90
21312;DHT22;18076;52.154;10.570;2023-05-07T14:54:49;12.70;99.90
21312;DHT22;18076;52.154;10.570;2023-05-07T14:57:14;12.70;99.90
21312;DHT22;18076;52.154;10.570;2023-05-07T14:59:41;12.70;99.90
21312;DHT22;18076;52.154;10.570;2023-05-07T15:02:07;12.80;99.90
21312;DHT22;18076;52.154;10.570;2023-05-07T15:04:33;13.10;99.90
21312;DHT22;18076;52.154;10.570;2023-05-07T15:06:59;13.20;99.90
21312;DHT22;18076;52.154;10.570;2023-05-07T15:09:25;13.20;99.90
21312;DHT22;18076;52.154;10.570;2023-05-07T15:11:51;13.10;99.90
21312;DHT22;18076;52.154;10.570;2023-05-07T15:14:16;13.10;99.90
21312;DHT22;18076;52.154;10.570;2023-05-07T15:16:42;13.10;99.90
21312;DHT22;18076;52.154;10.570;2023-05-07T15:19:07;13.10;99.90
21312;DHT22;18076;52.154;10.570;2023-05-07T15:21:33;13.10;99.90
21312;DHT22;18076;52.154;10.570;2023-05-07T15:24:00;13.10;99.90
21312;DHT22;18076;52.154;10.570;2023-05-07T15:26:26;13.10;99.90
21312;DHT22;18076;52.154;10.570;2023-05-07T15:28:51;12.90;99.90
21312;DHT22;18076;52.154;10.570;2023-05-07T15:31:17;12.90;99.90
21312;DHT22;18076;52.154;10.570;2023-05-07T15:33:43;12.80;99.90
21312;DHT22;18076;52.154;10.570;2023-05-07T15:36:10;12.90;99.90
21312;DHT22;18076;52.154;10.570;2023-05-07T15:38:36;12.90;99.90